sensor_id;sensor_type;location;lat;lon;timestamp;temperature;humidity
37300;DHT22;23184;51.902;12.836;2023-02-28T00:00:44;1.30;99.90
37300;DHT22;23184;51.902;12.836;2023-02-28T00:03:09;1.20;99.90
37300;DHT22;23184;51.902;12.836;2023-02-28T00:05:35;1.10;99.90
37300;DHT22;23184;51.902;12.836;2023-02-28T00:08:00;1.10;99.90
37300;DHT22;23184;51.902;12.836;2023-02-28T00:10:29;1.10;99.90
37300;DHT22;23184;51.902;12.836;2023-02-28T00:12:58;1.10;99.90
37300;DHT22;23184;51.902;12.836;2023-02-28T00:15:25;1.20;99.90
37300;DHT22;23184;51.902;12.836;2023-02-28T00:17:51;1.10;99.90
37300;DHT22;23184;51.902;12.836;2023-02-28T00:20:16;1.10;99.90
37300;DHT22;23184;51.902;12.836;2023-02-28T00:22:45;1.10;99.90
37300;DHT22;23184;51.902;12.836;2023-02-28T00:25:12;1.10;99.90
37300;DHT22;23184;51.902;12.836;2023-02-28T00:27:39;1.10;99.90
37300;DHT22;23184;51.902;12.836;2023-02-28T00:30:07;1.10;99.90
37300;DHT22;23184;51.902;12.836;2023-02-28T00:32:33;1.10;99.90
37300;DHT22;23184;51.902;12.836;2023-02-28T00:34:59;1.10;99.90
37300;DHT22;23184;51.902;12.836;2023-02-28T00:37:25;1.10;99.90
37300;DHT22;23184;51.902;12.836;2023-02-28T00:39:51;1.10;99.90
37300;DHT22;23184;51.902;12.836;2023-02-28T00:42:16;1.10;99.90
37300;DHT22;23184;51.902;12.836;2023-02-28T00:44:42;1.10;99.90
37300;DHT22;23184;51.902;12.836;2023-02-28T00:47:07;1.10;99.90
37300;DHT22;23184;51.902;12.836;2023-02-28T00:49:33;1.10;99.90
37300;DHT22;23184;51.902;12.836;2023-02-28T00:51:58;1.10;99.90
37300;DHT22;23184;51.902;12.836;2023-02-28T00:54:24;1.10;99.90
37300;DHT22;23184;51.902;12.836;2023-02-28T00:56:50;1.10;99.90
37300;DHT22;23184;51.902;12.836;2023-02-28T00:59:17;1.10;99.90
37300;DHT22;23184;51.902;12.836;2023-02-28T01:01:44;1.00;99.90
37300;DHT22;23184;51.902;12.836;2023-02-28T01:04:10;1.00;99.90
37300;DHT22;23184;51.902;12.836;2023-02-28T01:06:36;1.00;99.90
37300;DHT22;23184;51.902;12.836;2023-02-28T01:09:03;1.00;99.90
37300;DHT22;23184;51.902;12.836;2023-02-28T01:11:29;1.00;99.90
37300;DHT22;23184;51.902;12.836;2023-02-28T01:13:54;1.00;99.90
37300;DHT22;23184;51.902;12.836;2023-02-28T01:16:20;1.00;99.90
37300;DHT22;23184;51.902;12.836;2023-02-28T01:18:45;0.90;99.90
37300;DHT22;23184;51.902;12.836;2023-02-28T01:21:13;0.90;99.90
37300;DHT22;23184;51.902;12.836;2023-02-28T01:23:40;1.00;99.90
37300;DHT22;23184;51.902;12.836;2023-02-28T01:26:06;1.00;99.90
37300;DHT22;23184;51.902;12.836;2023-02-28T01:28:32;1.00;99.90
37300;DHT22;23184;51.902;12.836;2023-02-28T01:30:57;1.00;99.90
37300;DHT22;23184;51.902;12.836;2023-02-28T01:33:23;1.00;99.90
37300;DHT22;23184;51.902;12.836;2023-02-28T01:35:48;1.00;99.90
37300;DHT22;23184;51.902;12.836;2023-02-28T01:38:14;1.00;99.90
37300;DHT22;23184;51.902;12.836;2023-02-28T01:40:40;1.00;99.90
37300;DHT22;23184;51.902;12.836;2023-02-28T01:43:27;1.00;99.90
37300;DHT22;23184;51.902;12.836;2023-02-28T01:45:54;1.00;99.90
37300;DHT22;23184;51.902;12.836;2023-02-28T01:48:27;1.00;99.90
37300;DHT22;23184;51.902;12.836;2023-02-28T01:50:56;1.00;99.90
37300;DHT22;23184;51.902;12.836;2023-02-28T01:53:30;1.00;99.90
37300;DHT22;23184;51.902;12.836;2023-02-28T01:55:57;0.90;99.90
37300;DHT22;23184;51.902;12.836;2023-02-28T01:58:23;0.80;99.90
37300;DHT22;23184;51.902;12.836;2023-02-28T02:00:49;0.80;99.90
37300;DHT22;23184;51.902;12.836;2023-02-28T02:03:16;0.80;99.90
37300;DHT22;23184;51.902;12.836;2023-02-28T02:05:46;0.70;99.90
37300;DHT22;23184;51.902;12.836;2023-02-28T02:08:22;0.70;99.90
37300;DHT22;23184;51.902;12.836;2023-02-28T02:10:54;0.70;99.90
37300;DHT22;23184;51.902;12.836;2023-02-28T02:16:54;0.60;99.90
37300;DHT22;23184;51.902;12.836;2023-02-28T02:32:00;0.20;99.90
37300;DHT22;23184;51.902;12.836;2023-02-28T02:42:29;-0.20;99.90
37300;DHT22;23184;51.902;12.836;2023-02-28T02:45:10;-0.20;99.90
37300;DHT22;23184;51.902;12.836;2023-02-28T02:47:37;-0.40;99.90
37300;DHT22;23184;51.902;12.836;2023-02-28T02:50:06;-0.40;99.90
37300;DHT22;23184;51.902;12.836;2023-02-28T02:52:56;-0.40;99.90
37300;DHT22;23184;51.902;12.836;2023-02-28T02:55:23;-0.50;99.90
37300;DHT22;23184;51.902;12.836;2023-02-28T02:57:57;-0.50;99.90
37300;DHT22;23184;51.902;12.836;2023-02-28T03:00:27;-0.50;99.90
37300;DHT22;23184;51.902;12.836;2023-02-28T03:02:55;-0.50;99.90
37300;DHT22;23184;51.902;12.836;2023-02-28T03:05:27;-0.50;99.90
37300;DHT22;23184;51.902;12.836;2023-02-28T03:07:54;-0.50;99.90
37300;DHT22;23184;51.902;12.836;2023-02-28T03:10:38;-0.60;99.90
37300;DHT22;23184;51.902;12.836;2023-02-28T03:19:11;-0.50;99.90
37300;DHT22;23184;51.902;12.836;2023-02-28T03:21:27;-0.50;99.90
37300;DHT22;23184;51.902;12.836;2023-02-28T03:24:03;-0.50;99.90
37300;DHT22;23184;51.902;12.836;2023-02-28T03:26:31;-0.50;99.90
37300;DHT22;23184;51.902;12.836;2023-02-28T03:29:22;-0.60;99.90
37300;DHT22;23184;51.902;12.836;2023-02-28T03:31:53;-0.60;99.90
37300;DHT22;23184;51.902;12.836;2023-02-28T03:34:28;-0.60;99.90
37300;DHT22;23184;51.902;12.836;2023-02-28T03:36:58;-0.60;99.90
37300;DHT22;23184;51.902;12.836;2023-02-28T03:39:41;-0.60;99.90
37300;DHT22;23184;51.902;12.836;2023-02-28T03:42:27;-0.60;99.90
37300;DHT22;23184;51.902;12.836;2023-02-28T03:44:57;-0.70;99.90
37300;DHT22;23184;51.902;12.836;2023-02-28T03:47:31;-0.80;99.90
37300;DHT22;23184;51.902;12.836;2023-02-28T03:53:00;-0.90;99.90
37300;DHT22;23184;51.902;12.836;2023-02-28T03:55:32;-0.90;99.90
37300;DHT22;23184;51.902;12.836;2023-02-28T03:58:48;-1.00;99.90
37300;DHT22;23184;51.902;12.836;2023-02-28T04:01:06;-1.00;99.90
37300;DHT22;23184;51.902;12.836;2023-02-28T04:03:37;-0.90;99.90
37300;DHT22;23184;51.902;12.836;2023-02-28T04:06:05;-1.00;99.90
37300;DHT22;23184;51.902;12.836;2023-02-28T04:08:32;-1.00;99.90
37300;DHT22;23184;51.902;12.836;2023-02-28T04:11:03;-1.00;99.90
37300;DHT22;23184;51.902;12.836;2023-02-28T04:13:31;-1.00;99.90
37300;DHT22;23184;51.902;12.836;2023-02-28T04:15:57;-1.10;99.90
37300;DHT22;23184;51.902;12.836;2023-02-28T04:18:22;-1.10;99.90
37300;DHT22;23184;51.902;12.836;2023-02-28T04:20:48;-1.10;99.90
37300;DHT22;23184;51.902;12.836;2023-02-28T04:23:13;-1.20;99.90
37300;DHT22;23184;51.902;12.836;2023-02-28T04:25:39;-1.10;99.90
37300;DHT22;23184;51.902;12.836;2023-02-28T04:28:06;-1.20;99.90
37300;DHT22;23184;51.902;12.836;2023-02-28T04:30:31;-1.20;99.90
37300;DHT22;23184;51.902;12.836;2023-02-28T04:32:58;-1.20;99.90
37300;DHT22;23184;51.902;12.836;2023-02-28T04:35:23;-1.20;99.90
37300;DHT22;23184;51.902;12.836;2023-02-28T04:37:49;-1.20;99.90
37300;DHT22;23184;51.902;12.836;2023-02-28T04:40:15;-1.20;99.90
37300;DHT22;23184;51.902;12.836;2023-02-28T04:42:40;-1.20;99.90
37300;DHT22;23184;51.902;12.836;2023-02-28T04:45:06;-1.20;99.90
37300;DHT22;23184;51.902;12.836;2023-02-28T04:47:32;-1.10;99.90
37300;DHT22;23184;51.902;12.836;2023-02-28T04:49:57;-1.20;99.90
37300;DHT22;23184;51.902;12.836;2023-02-28T04:52:23;-1.20;99.90
37300;DHT22;23184;51.902;12.836;2023-02-28T04:54:48;-1.20;99.90
37300;DHT22;23184;51.902;12.836;2023-02-28T04:57:14;-1.20;99.90
37300;DHT22;23184;51.902;12.836;2023-02-28T04:59:40;-1.20;99.90
37300;DHT22;23184;51.902;12.836;2023-02-28T05:02:05;-1.20;99.90
37300;DHT22;23184;51.902;12.836;2023-02-28T05:04:35;-1.20;99.90
37300;DHT22;23184;51.902;12.836;2023-02-28T05:07:02;-1.20;99.90
37300;DHT22;23184;51.902;12.836;2023-02-28T05:09:28;-1.20;99.90
37300;DHT22;23184;51.902;12.836;2023-02-28T05:11:54;-1.20;99.90
37300;DHT22;23184;51.902;12.836;2023-02-28T05:14:20;-1.20;99.90
37300;DHT22;23184;51.902;12.836;2023-02-28T05:16:45;-1.20;99.90
37300;DHT22;23184;51.902;12.836;2023-02-28T05:19:11;-1.20;99.90
37300;DHT22;23184;51.902;12.836;2023-02-28T05:21:41;-1.30;99.90
37300;DHT22;23184;51.902;12.836;2023-02-28T05:24:13;-1.30;99.90
37300;DHT22;23184;51.902;12.836;2023-02-28T05:26:41;-1.20;99.90
37300;DHT22;23184;51.902;12.836;2023-02-28T05:29:07;-1.30;99.90
37300;DHT22;23184;51.902;12.836;2023-02-28T05:31:33;-1.30;99.90
37300;DHT22;23184;51.902;12.836;2023-02-28T05:33:59;-1.30;99.90
37300;DHT22;23184;51.902;12.836;2023-02-28T05:36:25;-1.30;99.90
37300;DHT22;23184;51.902;12.836;2023-02-28T05:38:51;-1.30;99.90
37300;DHT22;23184;51.902;12.836;2023-02-28T05:41:17;-1.30;99.90
37300;DHT22;23184;51.902;12.836;2023-02-28T05:43:44;-1.30;99.90
37300;DHT22;23184;51.902;12.836;2023-02-28T05:46:11;-1.20;99.90
37300;DHT22;23184;51.902;12.836;2023-02-28T05:48:38;-1.30;99.90
37300;DHT22;23184;51.902;12.836;2023-02-28T05:51:05;-1.30;99.90
37300;DHT22;23184;51.902;12.836;2023-02-28T05:53:31;-1.20;99.90
37300;DHT22;23184;51.902;12.836;2023-02-28T05:55:57;-1.20;99.90
37300;DHT22;23184;51.902;12.836;2023-02-28T05:58:23;-1.30;99.90
37300;DHT22;23184;51.902;12.836;2023-02-28T06:00:51;-1.30;99.90
37300;DHT22;23184;51.902;12.836;2023-02-28T06:03:16;-1.30;99.90
37300;DHT22;23184;51.902;12.836;2023-02-28T06:05:42;-1.30;99.90
37300;DHT22;23184;51.902;12.836;2023-02-28T06:08:07;-1.30;99.90
37300;DHT22;23184;51.902;12.836;2023-02-28T06:10:34;-1.30;99.90
37300;DHT22;23184;51.902;12.836;2023-02-28T06:13:01;-1.20;99.90
37300;DHT22;23184;51.902;12.836;2023-02-28T06:15:28;-1.20;99.90
37300;DHT22;23184;51.902;12.836;2023-02-28T06:17:53;-1.20;99.90
37300;DHT22;23184;51.902;12.836;2023-02-28T06:20:19;-1.20;99.90
37300;DHT22;23184;51.902;12.836;2023-02-28T06:22:44;-1.20;99.90
37300;DHT22;23184;51.902;12.836;2023-02-28T06:25:10;-1.20;99.90
37300;DHT22;23184;51.902;12.836;2023-02-28T06:27:36;-1.20;99.90
37300;DHT22;23184;51.902;12.836;2023-02-28T06:30:01;-1.20;99.90
37300;DHT22;23184;51.902;12.836;2023-02-28T06:32:27;-1.20;99.90
37300;DHT22;23184;51.902;12.836;2023-02-28T06:34:52;-1.20;99.90
37300;DHT22;23184;51.902;12.836;2023-02-28T06:37:18;-1.10;99.90
37300;DHT22;23184;51.902;12.836;2023-02-28T06:39:44;-1.10;99.90
37300;DHT22;23184;51.902;12.836;2023-02-28T06:42:09;-1.10;99.90
37300;DHT22;23184;51.902;12.836;2023-02-28T06:44:35;-1.00;99.90
37300;DHT22;23184;51.902;12.836;2023-02-28T06:47:02;-1.00;99.90
37300;DHT22;23184;51.902;12.836;2023-02-28T06:49:29;-1.00;99.90
37300;DHT22;23184;51.902;12.836;2023-02-28T06:51:54;-0.90;99.90
37300;DHT22;23184;51.902;12.836;2023-02-28T06:54:20;-0.90;99.90
37300;DHT22;23184;51.902;12.836;2023-02-28T06:56:46;-0.90;99.90
37300;DHT22;23184;51.902;12.836;2023-02-28T06:59:12;-0.80;99.90
37300;DHT22;23184;51.902;12.836;2023-02-28T07:01:38;-0.80;99.90
37300;DHT22;23184;51.902;12.836;2023-02-28T07:04:04;-0.80;99.90
37300;DHT22;23184;51.902;12.836;2023-02-28T07:06:30;-0.70;99.90
37300;DHT22;23184;51.902;12.836;2023-02-28T07:08:56;-0.60;99.90
37300;DHT22;23184;51.902;12.836;2023-02-28T07:11:24;-0.60;99.90
37300;DHT22;23184;51.902;12.836;2023-02-28T07:13:54;-0.50;99.90
37300;DHT22;23184;51.902;12.836;2023-02-28T07:16:20;-0.50;99.90
37300;DHT22;23184;51.902;12.836;2023-02-28T07:18:46;-0.40;99.90
37300;DHT22;23184;51.902;12.836;2023-02-28T07:21:12;-0.30;99.90
37300;DHT22;23184;51.902;12.836;2023-02-28T07:23:39;-0.20;99.90
37300;DHT22;23184;51.902;12.836;2023-02-28T07:26:06;-0.10;99.90
37300;DHT22;23184;51.902;12.836;2023-02-28T07:28:32;0.00;99.90
37300;DHT22;23184;51.902;12.836;2023-02-28T07:31:05;0.00;99.90
37300;DHT22;23184;51.902;12.836;2023-02-28T07:33:31;0.10;99.90
37300;DHT22;23184;51.902;12.836;2023-02-28T07:36:04;0.20;99.90
37300;DHT22;23184;51.902;12.836;2023-02-28T07:38:30;0.20;99.90
37300;DHT22;23184;51.902;12.836;2023-02-28T07:40:56;0.30;99.90
37300;DHT22;23184;51.902;12.836;2023-02-28T07:43:22;0.40;99.90
37300;DHT22;23184;51.902;12.836;2023-02-28T07:45:47;0.50;99.90
37300;DHT22;23184;51.902;12.836;2023-02-28T07:48:12;0.60;99.90
37300;DHT22;23184;51.902;12.836;2023-02-28T07:50:38;0.70;99.90
37300;DHT22;23184;51.902;12.836;2023-02-28T07:53:04;0.80;99.90
37300;DHT22;23184;51.902;12.836;2023-02-28T07:55:29;0.90;99.90
37300;DHT22;23184;51.902;12.836;2023-02-28T07:57:56;1.00;99.90
37300;DHT22;23184;51.902;12.836;2023-02-28T08:00:22;1.10;99.90
37300;DHT22;23184;51.902;12.836;2023-02-28T08:02:48;1.20;99.90
37300;DHT22;23184;51.902;12.836;2023-02-28T08:05:14;1.30;99.90
37300;DHT22;23184;51.902;12.836;2023-02-28T08:07:39;1.40;99.90
37300;DHT22;23184;51.902;12.836;2023-02-28T08:10:05;1.50;99.90
37300;DHT22;23184;51.902;12.836;2023-02-28T08:12:31;1.60;99.90
37300;DHT22;23184;51.902;12.836;2023-02-28T08:14:56;1.80;99.90
37300;DHT22;23184;51.902;12.836;2023-02-28T08:17:22;1.90;99.90
37300;DHT22;23184;51.902;12.836;2023-02-28T08:19:47;2.10;99.90
37300;DHT22;23184;51.902;12.836;2023-02-28T08:22:13;2.20;99.90
37300;DHT22;23184;51.902;12.836;2023-02-28T08:24:40;2.30;99.90
37300;DHT22;23184;51.902;12.836;2023-02-28T08:27:06;2.40;99.90
37300;DHT22;23184;51.902;12.836;2023-02-28T08:29:32;2.50;99.90
37300;DHT22;23184;51.902;12.836;2023-02-28T08:31:57;2.60;99.90
37300;DHT22;23184;51.902;12.836;2023-02-28T08:34:24;2.70;99.90
37300;DHT22;23184;51.902;12.836;2023-02-28T08:36:49;2.80;99.90
37300;DHT22;23184;51.902;12.836;2023-02-28T08:39:15;2.90;99.90
37300;DHT22;23184;51.902;12.836;2023-02-28T08:41:42;3.00;99.90
37300;DHT22;23184;51.902;12.836;2023-02-28T08:44:07;3.10;99.90
37300;DHT22;23184;51.902;12.836;2023-02-28T08:46:33;3.20;99.90
37300;DHT22;23184;51.902;12.836;2023-02-28T08:48:58;3.30;99.90
37300;DHT22;23184;51.902;12.836;2023-02-28T08:51:27;3.50;99.90
37300;DHT22;23184;51.902;12.836;2023-02-28T08:53:54;4.10;99.90
37300;DHT22;23184;51.902;12.836;2023-02-28T08:56:20;5.50;99.90
37300;DHT22;23184;51.902;12.836;2023-02-28T08:58:48;7.20;99.90
37300;DHT22;23184;51.902;12.836;2023-02-28T09:01:22;8.60;94.60
37300;DHT22;23184;51.902;12.836;2023-02-28T09:03:49;9.40;81.60
37300;DHT22;23184;51.902;12.836;2023-02-28T09:06:16;9.30;72.30
37300;DHT22;23184;51.902;12.836;2023-02-28T09:08:42;8.70;71.50
37300;DHT22;23184;51.902;12.836;2023-02-28T09:11:08;8.70;74.20
37300;DHT22;23184;51.902;12.836;2023-02-28T09:13:34;9.00;72.30
37300;DHT22;23184;51.902;12.836;2023-02-28T09:16:01;9.20;70.70
37300;DHT22;23184;51.902;12.836;2023-02-28T09:18:27;9.20;68.20
37300;DHT22;23184;51.902;12.836;2023-02-28T09:20:53;9.60;70.20
37300;DHT22;23184;51.902;12.836;2023-02-28T09:23:18;10.30;67.20
37300;DHT22;23184;51.902;12.836;2023-02-28T09:25:46;11.20;64.80
37300;DHT22;23184;51.902;12.836;2023-02-28T09:28:12;11.80;59.50
37300;DHT22;23184;51.902;12.836;2023-02-28T09:30:40;11.40;58.80
37300;DHT22;23184;51.902;12.836;2023-02-28T09:33:06;11.60;58.90
37300;DHT22;23184;51.902;12.836;2023-02-28T09:35:32;11.50;58.60
37300;DHT22;23184;51.902;12.836;2023-02-28T09:37:57;12.00;58.40
37300;DHT22;23184;51.902;12.836;2023-02-28T09:40:25;12.50;57.20
37300;DHT22;23184;51.902;12.836;2023-02-28T09:42:55;13.10;55.60
37300;DHT22;23184;51.902;12.836;2023-02-28T09:45:32;13.40;53.70
37300;DHT22;23184;51.902;12.836;2023-02-28T09:48:01;13.40;54.90
37300;DHT22;23184;51.902;12.836;2023-02-28T09:50:40;13.50;53.40
37300;DHT22;23184;51.902;12.836;2023-02-28T09:53:18;13.20;52.00
37300;DHT22;23184;51.902;12.836;2023-02-28T09:55:47;13.50;52.30
37300;DHT22;23184;51.902;12.836;2023-02-28T10:01:00;14.20;52.20
37300;DHT22;23184;51.902;12.836;2023-02-28T10:03:46;13.20;52.40
37300;DHT22;23184;51.902;12.836;2023-02-28T10:06:20;13.40;53.30
37300;DHT22;23184;51.902;12.836;2023-02-28T10:09:10;13.80;52.80
37300;DHT22;23184;51.902;12.836;2023-02-28T10:11:40;15.00;52.00
37300;DHT22;23184;51.902;12.836;2023-02-28T10:14:14;15.20;50.10
37300;DHT22;23184;51.902;12.836;2023-02-28T10:17:00;14.20;50.40
37300;DHT22;23184;51.902;12.836;2023-02-28T10:19:44;13.30;50.20
37300;DHT22;23184;51.902;12.836;2023-02-28T10:24:49;12.00;55.10
37300;DHT22;23184;51.902;12.836;2023-02-28T10:27:22;12.10;55.00
37300;DHT22;23184;51.902;12.836;2023-02-28T10:29:54;12.60;55.20
37300;DHT22;23184;51.902;12.836;2023-02-28T10:32:23;12.80;53.70
37300;DHT22;23184;51.902;12.836;2023-02-28T10:35:07;12.90;52.90
37300;DHT22;23184;51.902;12.836;2023-02-28T10:37:44;14.30;53.00
37300;DHT22;23184;51.902;12.836;2023-02-28T10:43:02;14.10;50.60
37300;DHT22;23184;51.902;12.836;2023-02-28T10:45:35;14.00;51.10
37300;DHT22;23184;51.902;12.836;2023-02-28T10:50:46;14.50;50.30
37300;DHT22;23184;51.902;12.836;2023-02-28T10:56:12;14.00;49.50
37300;DHT22;23184;51.902;12.836;2023-02-28T11:01:17;11.30;53.70
37300;DHT22;23184;51.902;12.836;2023-02-28T11:03:43;10.10;56.90
37300;DHT22;23184;51.902;12.836;2023-02-28T11:06:22;9.80;59.90
37300;DHT22;23184;51.902;12.836;2023-02-28T11:08:52;9.30;59.70
37300;DHT22;23184;51.902;12.836;2023-02-28T11:11:18;8.80;60.40
37300;DHT22;23184;51.902;12.836;2023-02-28T11:13:46;8.50;61.50
37300;DHT22;23184;51.902;12.836;2023-02-28T11:16:14;8.10;64.20
37300;DHT22;23184;51.902;12.836;2023-02-28T11:18:52;7.80;63.70
37300;DHT22;23184;51.902;12.836;2023-02-28T11:24:12;7.40;67.10
37300;DHT22;23184;51.902;12.836;2023-02-28T11:26:44;7.40;66.90
37300;DHT22;23184;51.902;12.836;2023-02-28T11:29:29;7.20;68.60
37300;DHT22;23184;51.902;12.836;2023-02-28T11:34:39;7.00;68.40
37300;DHT22;23184;51.902;12.836;2023-02-28T11:37:11;6.60;70.40
37300;DHT22;23184;51.902;12.836;2023-02-28T11:39:37;6.50;72.40
37300;DHT22;23184;51.902;12.836;2023-02-28T11:42:32;6.50;71.20
37300;DHT22;23184;51.902;12.836;2023-02-28T11:48:15;6.30;71.30
37300;DHT22;23184;51.902;12.836;2023-02-28T11:50:54;6.10;73.30
37300;DHT22;23184;51.902;12.836;2023-02-28T12:13:04;6.10;73.70
37300;DHT22;23184;51.902;12.836;2023-02-28T12:21:33;6.10;74.60
37300;DHT22;23184;51.902;12.836;2023-02-28T12:26:47;6.10;74.50
37300;DHT22;23184;51.902;12.836;2023-02-28T12:29:28;6.00;74.20
37300;DHT22;23184;51.902;12.836;2023-02-28T12:32:09;6.00;75.40
37300;DHT22;23184;51.902;12.836;2023-02-28T12:34:46;5.90;74.60
37300;DHT22;23184;51.902;12.836;2023-02-28T12:37:46;6.00;76.50
37300;DHT22;23184;51.902;12.836;2023-02-28T12:40:23;6.00;74.20
37300;DHT22;23184;51.902;12.836;2023-02-28T12:42:54;6.10;74.50
37300;DHT22;23184;51.902;12.836;2023-02-28T12:45:24;6.20;76.20
37300;DHT22;23184;51.902;12.836;2023-02-28T12:47:55;6.20;75.90
37300;DHT22;23184;51.902;12.836;2023-02-28T12:50:23;6.30;75.70
37300;DHT22;23184;51.902;12.836;2023-02-28T12:52:59;6.30;75.60
37300;DHT22;23184;51.902;12.836;2023-02-28T12:55:39;6.20;74.10
37300;DHT22;23184;51.902;12.836;2023-02-28T13:04:21;6.40;75.60
37300;DHT22;23184;51.902;12.836;2023-02-28T13:09:37;6.60;76.30
37300;DHT22;23184;51.902;12.836;2023-02-28T13:12:13;6.70;76.90
37300;DHT22;23184;51.902;12.836;2023-02-28T13:14:39;6.80;75.20
37300;DHT22;23184;51.902;12.836;2023-02-28T13:24:52;7.90;71.50
37300;DHT22;23184;51.902;12.836;2023-02-28T13:27:37;8.40;70.80
37300;DHT22;23184;51.902;12.836;2023-02-28T13:33:31;9.70;68.50
37300;DHT22;23184;51.902;12.836;2023-02-28T13:38:46;12.30;64.70
37300;DHT22;23184;51.902;12.836;2023-02-28T13:44:18;14.50;58.10
37300;DHT22;23184;51.902;12.836;2023-02-28T13:49:32;16.60;53.60
37300;DHT22;23184;51.902;12.836;2023-02-28T13:55:17;16.70;50.60
37300;DHT22;23184;51.902;12.836;2023-02-28T13:58:01;16.90;51.40
37300;DHT22;23184;51.902;12.836;2023-02-28T14:03:50;17.00;49.00
37300;DHT22;23184;51.902;12.836;2023-02-28T14:06:32;18.40;49.00
37300;DHT22;23184;51.902;12.836;2023-02-28T14:09:23;19.60;47.50
37300;DHT22;23184;51.902;12.836;2023-02-28T14:17:15;20.80;43.40
37300;DHT22;23184;51.902;12.836;2023-02-28T14:19:45;19.90;43.10
37300;DHT22;23184;51.902;12.836;2023-02-28T14:22:19;19.90;42.90
37300;DHT22;23184;51.902;12.836;2023-02-28T14:25:08;19.90;43.30
37300;DHT22;23184;51.902;12.836;2023-02-28T14:33:14;20.00;42.50
37300;DHT22;23184;51.902;12.836;2023-02-28T14:36:00;19.00;43.10
37300;DHT22;23184;51.902;12.836;2023-02-28T14:38:53;19.20;43.80
37300;DHT22;23184;51.902;12.836;2023-02-28T14:41:31;19.10;44.20
37300;DHT22;23184;51.902;12.836;2023-02-28T14:44:01;18.60;43.50
37300;DHT22;23184;51.902;12.836;2023-02-28T14:46:35;18.00;44.80
37300;DHT22;23184;51.902;12.836;2023-02-28T14:49:04;18.40;45.80
37300;DHT22;23184;51.902;12.836;2023-02-28T14:51:30;19.20;44.60
37300;DHT22;23184;51.902;12.836;2023-02-28T14:53:59;19.70;43.40
37300;DHT22;23184;51.902;12.836;2023-02-28T14:56:36;19.60;41.90
37300;DHT22;23184;51.902;12.836;2023-02-28T14:59:03;19.30;43.00
37300;DHT22;23184;51.902;12.836;2023-02-28T15:01:28;18.60;43.80
37300;DHT22;23184;51.902;12.836;2023-02-28T15:04:03;18.60;44.40
37300;DHT22;23184;51.902;12.836;2023-02-28T15:06:29;19.10;44.30
37300;DHT22;23184;51.902;12.836;2023-02-28T15:09:16;18.70;43.50
37300;DHT22;23184;51.902;12.836;2023-02-28T15:11:46;18.50;43.70
37300;DHT22;23184;51.902;12.836;2023-02-28T15:14:18;18.20;44.40
37300;DHT22;23184;51.902;12.836;2023-02-28T15:16:45;18.30;45.10
37300;DHT22;23184;51.902;12.836;2023-02-28T15:19:29;18.40;44.40
37300;DHT22;23184;51.902;12.836;2023-02-28T15:22:06;18.00;44.40
37300;DHT22;23184;51.902;12.836;2023-02-28T15:24:47;17.20;44.60
37300;DHT22;23184;51.902;12.836;2023-02-28T15:27:24;16.90;45.90
37300;DHT22;23184;51.902;12.836;2023-02-28T15:29:55;16.40;46.40
37300;DHT22;23184;51.902;12.836;2023-02-28T15:32:34;16.10;47.70
37300;DHT22;23184;51.902;12.836;2023-02-28T15:40:37;15.50;48.70
37300;DHT22;23184;51.902;12.836;2023-02-28T15:43:18;14.80;50.30
37300;DHT22;23184;51.902;12.836;2023-02-28T15:45:50;13.90;51.40
37300;DHT22;23184;51.902;12.836;2023-02-28T15:48:28;13.00;54.30
37300;DHT22;23184;51.902;12.836;2023-02-28T15:50:57;12.20;54.50
37300;DHT22;23184;51.902;12.836;2023-02-28T15:53:33;11.70;56.30
37300;DHT22;23184;51.902;12.836;2023-02-28T15:56:05;10.90;58.60
37300;DHT22;23184;51.902;12.836;2023-02-28T15:58:32;10.60;60.00
37300;DHT22;23184;51.902;12.836;2023-02-28T16:01:24;9.90;59.40
37300;DHT22;23184;51.902;12.836;2023-02-28T16:03:53;9.50;62.40
37300;DHT22;23184;51.902;12.836;2023-02-28T16:06:24;9.20;63.60
37300;DHT22;23184;51.902;12.836;2023-02-28T16:08:50;8.80;63.60
37300;DHT22;23184;51.902;12.836;2023-02-28T16:11:16;8.60;66.00
37300;DHT22;23184;51.902;12.836;2023-02-28T16:13:42;8.40;66.70
37300;DHT22;23184;51.902;12.836;2023-02-28T16:16:08;8.20;67.30
37300;DHT22;23184;51.902;12.836;2023-02-28T16:18:39;8.10;67.50
37300;DHT22;23184;51.902;12.836;2023-02-28T16:21:05;8.10;68.40
37300;DHT22;23184;51.902;12.836;2023-02-28T16:23:30;7.90;69.50
37300;DHT22;23184;51.902;12.836;2023-02-28T16:25:56;7.50;71.20
37300;DHT22;23184;51.902;12.836;2023-02-28T16:28:29;7.10;72.10
37300;DHT22;23184;51.902;12.836;2023-02-28T16:30:56;6.80;74.50
37300;DHT22;23184;51.902;12.836;2023-02-28T16:33:22;6.50;75.00
37300;DHT22;23184;51.902;12.836;2023-02-28T16:35:47;6.20;76.20
37300;DHT22;23184;51.902;12.836;2023-02-28T16:38:13;6.00;78.50
37300;DHT22;23184;51.902;12.836;2023-02-28T16:40:38;5.80;80.90
37300;DHT22;23184;51.902;12.836;2023-02-28T16:43:07;5.70;82.00
37300;DHT22;23184;51.902;12.836;2023-02-28T16:45:35;5.50;84.30
37300;DHT22;23184;51.902;12.836;2023-02-28T16:48:00;5.30;86.30
37300;DHT22;23184;51.902;12.836;2023-02-28T16:50:28;5.00;86.80
37300;DHT22;23184;51.902;12.836;2023-02-28T16:52:54;4.80;88.50
37300;DHT22;23184;51.902;12.836;2023-02-28T16:55:24;4.60;90.50
37300;DHT22;23184;51.902;12.836;2023-02-28T16:57:56;4.50;94.80
37300;DHT22;23184;51.902;12.836;2023-02-28T17:00:22;4.30;97.20
37300;DHT22;23184;51.902;12.836;2023-02-28T17:02:48;4.20;99.90
37300;DHT22;23184;51.902;12.836;2023-02-28T17:05:14;4.00;99.90
37300;DHT22;23184;51.902;12.836;2023-02-28T17:07:41;3.90;99.90
37300;DHT22;23184;51.902;12.836;2023-02-28T17:10:15;3.70;99.90
37300;DHT22;23184;51.902;12.836;2023-02-28T17:12:42;3.60;99.90
37300;DHT22;23184;51.902;12.836;2023-02-28T17:15:10;3.40;99.90
37300;DHT22;23184;51.902;12.836;2023-02-28T17:17:35;3.20;99.90
37300;DHT22;23184;51.902;12.836;2023-02-28T17:20:02;2.90;99.90
37300;DHT22;23184;51.902;12.836;2023-02-28T17:22:28;2.80;99.90
37300;DHT22;23184;51.902;12.836;2023-02-28T17:24:53;2.70;99.90
37300;DHT22;23184;51.902;12.836;2023-02-28T17:27:21;2.60;99.90
37300;DHT22;23184;51.902;12.836;2023-02-28T17:29:46;2.40;99.90
37300;DHT22;23184;51.902;12.836;2023-02-28T17:32:12;2.30;99.90
37300;DHT22;23184;51.902;12.836;2023-02-28T17:34:38;2.30;99.90
37300;DHT22;23184;51.902;12.836;2023-02-28T17:37:03;2.20;99.90
37300;DHT22;23184;51.902;12.836;2023-02-28T17:39:29;2.10;99.90
37300;DHT22;23184;51.902;12.836;2023-02-28T17:41:56;2.00;99.90
37300;DHT22;23184;51.902;12.836;2023-02-28T17:44:22;1.90;99.90
37300;DHT22;23184;51.902;12.836;2023-02-28T17:46:53;1.90;99.90
37300;DHT22;23184;51.902;12.836;2023-02-28T17:49:19;1.80;99.90
37300;DHT22;23184;51.902;12.836;2023-02-28T17:51:45;1.80;99.90
37300;DHT22;23184;51.902;12.836;2023-02-28T17:54:11;1.70;99.90